Terminal Aerodrome Forecast
Issued by NWS Sterling, VA

Current Version | Previous Version | Graphics & Text | Print | Product List | Glossary On
Versions: 1 2 3 4 5 6 7 8 9 10 11 12 13 14 15 16 17 18 19 20 21 22 23 24 25
000
FTUS41 KLWX 182341
TAFIAD
TAF
KIAD 182341Z 1900/2006 15010KT P6SM BKN080 OVC120
     FM190400 19016G26KT 6SM -SHRA BKN025 OVC040
     FM190900 25025G40KT P6SM SCT015 OVC040
     FM191200 29025G39KT P6SM BKN070
     FM191800 30020G36KT P6SM SCT045
     FM192200 30017G31KT P6SM SCT250
     FM200200 29013G22KT P6SM SCT045=

USA.gov is the U.S. government's official web portal to all federal, state and local government web resources and services.